»·PEaware :: N8029B L88-L52

N8029B :: L88-L52

FLIGHT INFORMATION

Flight Status: Arrived
Operator: Privately registered:
United States
More flights under this callsign
Pilot: Matt C. (25314)
Aircraft: CESSNA 172 SKYHAWK
(C172)
More flights by this aircraft type
Origin: L88 New Cuyama
United States
Destination: L52 Oceano Co
United States
More flights between these airports :: More routes between these airports
Route: FLW WYNNR
File this flight plan on PilotEdge
Remarks: New to PE
Altitude:
(Current/Filed)
5,000ft
Speed:
(Current/Filed)
150kts
Departed: 01-Jul-19 01:42 PM
Arrived: 01-Jul-19 02:26 PM
Distance/Time
Traveled:
47nm/0:44
Distance/Time
To Go:
Arrived

Flight Plot

Page will automatically refresh every two minutes.

Flight plan parsing failed; only flown route is shown


Map Options




Map Legend


Flown Route
Filed Route
Departure Airport
Arrival Airport
Navaid (VOR, NDB)
Fix

Horizontal Profiles

Position Reports

Time Latitude Longitude Heading Altitude Ground
Speed
01-Jul-19 13:18 34.943924 -119.690797 202 2154ft 0kts
01-Jul-19 13:19 34.943924 -119.690797 202 2154ft 0kts
01-Jul-19 13:20 34.943924 -119.690797 202 2154ft 0kts
01-Jul-19 13:21 34.943924 -119.690797 202 2154ft 0kts
01-Jul-19 13:22 34.943924 -119.690797 202 2154ft 0kts
01-Jul-19 13:23 34.943924 -119.690797 202 2154ft 0kts
01-Jul-19 13:24 34.943924 -119.690797 202 2154ft 0kts
01-Jul-19 13:25 34.943924 -119.690797 202 2154ft 0kts
01-Jul-19 13:26 34.943924 -119.690797 202 2154ft 0kts
01-Jul-19 13:27 34.943924 -119.690797 202 2154ft 0kts
01-Jul-19 13:28 34.943924 -119.690797 202 2154ft 0kts
01-Jul-19 13:29 34.943924 -119.690797 202 2154ft 0kts
01-Jul-19 13:30 34.943924 -119.690797 202 2154ft 0kts
01-Jul-19 13:31 34.943924 -119.690797 202 2154ft 0kts
01-Jul-19 13:32 34.943924 -119.690797 203 2154ft 0kts
01-Jul-19 13:33 34.943924 -119.690797 203 2154ft 0kts
01-Jul-19 13:34 34.943924 -119.690797 203 2154ft 0kts
01-Jul-19 13:34 34.943924 -119.690797 203 2154ft 0kts
01-Jul-19 13:36 34.943924 -119.690797 203 2154ft 0kts
01-Jul-19 13:37 34.943924 -119.690797 203 2154ft 0kts
01-Jul-19 13:37 34.943924 -119.690797 203 2154ft 0kts
01-Jul-19 13:39 34.943002 -119.691025 188 2158ft 0kts
01-Jul-19 13:39 34.942634 -119.691237 206 2159ft 7kts
01-Jul-19 13:40 34.941801 -119.690114 116 2166ft 37kts
01-Jul-19 13:42 34.927020 -119.671421 197 2934ft 69kts
01-Jul-19 13:42 34.930159 -119.692607 293 3483ft 84kts
01-Jul-19 13:43 34.942125 -119.718303 280 4194ft 90kts
01-Jul-19 13:44 34.961393 -119.732518 340 5038ft 71kts
01-Jul-19 13:45 34.979113 -119.753253 280 5047ft 113kts
01-Jul-19 13:46 34.989189 -119.783889 336 5391ft 87kts
01-Jul-19 13:47 35.013419 -119.793793 340 5826ft 106kts
01-Jul-19 13:48 35.042403 -119.809539 322 5641ft 118kts
01-Jul-19 13:49 35.066995 -119.836521 315 5507ft 116kts
01-Jul-19 13:50 35.089140 -119.864439 293 5508ft 114kts
01-Jul-19 13:51 35.094638 -119.902770 276 5509ft 115kts
01-Jul-19 13:52 35.097528 -119.941666 275 5509ft 115kts
01-Jul-19 13:53 35.100296 -119.980671 275 5509ft 114kts
01-Jul-19 13:54 35.103044 -120.019548 276 5511ft 114kts
01-Jul-19 13:55 35.105651 -120.056579 277 5510ft 101kts
01-Jul-19 13:56 35.108309 -120.094501 276 5516ft 113kts
01-Jul-19 13:57 35.110978 -120.132751 276 5519ft 112kts
01-Jul-19 13:58 35.113646 -120.171153 276 5523ft 113kts
01-Jul-19 13:59 35.116271 -120.209231 276 5525ft 112kts
01-Jul-19 14:00 35.115407 -120.247622 268 5528ft 113kts
01-Jul-19 14:01 35.113940 -120.285941 269 5528ft 113kts
01-Jul-19 14:02 35.112447 -120.324392 269 5528ft 112kts
01-Jul-19 14:03 35.110945 -120.362624 269 5528ft 112kts
01-Jul-19 14:04 35.109439 -120.401160 269 5238ft 113kts
01-Jul-19 14:05 35.107932 -120.439006 270 4541ft 111kts
01-Jul-19 14:06 35.106477 -120.475123 271 3831ft 101kts
01-Jul-19 14:07 35.105126 -120.508442 272 3129ft 96kts
01-Jul-19 14:08 35.106281 -120.540205 300 2428ft 91kts
01-Jul-19 14:09 35.116480 -120.566131 304 2086ft 83kts
01-Jul-19 14:10 35.123750 -120.591715 301 2017ft 69kts
01-Jul-19 14:11 35.135284 -120.616215 301 2029ft 92kts
01-Jul-19 14:12 35.139288 -120.644840 222 2026ft 106kts
01-Jul-19 14:13 35.112459 -120.662177 199 1886ft 117kts
01-Jul-19 14:14 35.086091 -120.639118 132 991ft 117kts
01-Jul-19 14:15 35.068797 -120.615579 132 1021ft 89kts
01-Jul-19 14:16 35.074452 -120.592611 23 1014ft 63kts
01-Jul-19 14:17 35.086479 -120.600276 319 737ft 65kts
01-Jul-19 14:18 35.098340 -120.613927 276 389ft 55kts
01-Jul-19 14:19 35.106128 -120.632928 284 1065ft 78kts
01-Jul-19 14:20 35.101168 -120.651559 150 1174ft 95kts
01-Jul-19 14:21 35.080517 -120.630036 144 873ft 101kts
01-Jul-19 14:22 35.072215 -120.607482 63 825ft 81kts
01-Jul-19 14:23 35.083227 -120.596458 331 748ft 63kts
01-Jul-19 14:24 35.096107 -120.611099 275 269ft 60kts
01-Jul-19 14:25 35.102891 -120.625517 224 19ft 0kts

Navigation Log

Ident Type
Flight plan parsing failed, navigation log unavailable